createdAt,value
2019-02-26T00:02:46.679Z,7.90
2019-02-26T00:05:52.211Z,7.90
2019-02-26T00:08:58.641Z,8.10
2019-02-26T00:12:00.873Z,8.10
2019-02-26T00:15:05.575Z,8.20
2019-02-26T00:18:11.551Z,8.20
2019-02-26T00:21:14.325Z,8.30
2019-02-26T00:24:17.591Z,8.40
2019-02-26T00:27:20.527Z,8.50
2019-02-26T00:30:24.176Z,8.40
2019-02-26T00:33:28.989Z,8.20
2019-02-26T00:36:33.641Z,8.10
2019-02-26T00:39:37.344Z,8.00
2019-02-26T00:42:42.199Z,8.00
2019-02-26T00:45:46.149Z,8.20
2019-02-26T00:48:49.330Z,8.20
2019-02-26T00:51:52.861Z,8.30
2019-02-26T00:54:58.174Z,8.00
2019-02-26T00:58:03.286Z,7.60
2019-02-26T01:01:10.203Z,7.40
2019-02-26T01:04:12.167Z,7.40
2019-02-26T01:07:15.808Z,7.20
2019-02-26T01:10:21.056Z,7.40
2019-02-26T01:13:25.649Z,7.80
2019-02-26T01:16:29.804Z,8.20
2019-02-26T01:19:34.180Z,7.90
2019-02-26T01:22:40.159Z,7.50
2019-02-26T01:25:43.051Z,7.60
2019-02-26T01:28:48.455Z,7.60
2019-02-26T01:31:51.366Z,7.60
2019-02-26T01:34:54.322Z,7.40
2019-02-26T01:37:59.882Z,7.40
2019-02-26T01:41:02.351Z,7.20
2019-02-26T01:44:05.302Z,7.50
2019-02-26T01:47:08.294Z,7.80
2019-02-26T01:50:13.389Z,8.00
2019-02-26T01:53:17.558Z,7.50
2019-02-26T01:56:22.169Z,7.50
2019-02-26T01:59:25.409Z,7.40
2019-02-26T02:02:30.281Z,7.20
2019-02-26T02:05:33.336Z,7.60
2019-02-26T02:08:39.290Z,7.70
2019-02-26T02:11:41.681Z,7.90
2019-02-26T02:14:45.196Z,7.80
2019-02-26T02:17:48.740Z,7.90
2019-02-26T02:20:51.679Z,8.00
2019-02-26T02:23:54.638Z,7.80
2019-02-26T02:26:58.480Z,7.50
2019-02-26T02:30:03.509Z,7.40
2019-02-26T02:33:07.086Z,7.60
2019-02-26T02:36:11.789Z,7.80
2019-02-26T02:39:17.762Z,8.00
2019-02-26T02:42:22.015Z,8.10
2019-02-26T02:45:25.191Z,8.10
2019-02-26T02:48:28.397Z,8.10
2019-02-26T02:51:33.971Z,8.00
2019-02-26T02:54:38.555Z,7.60
2019-02-26T02:57:42.728Z,7.50
2019-02-26T03:00:46.556Z,7.80
2019-02-26T03:03:53.819Z,7.70
2019-02-26T03:06:58.643Z,7.60
2019-02-26T03:10:06.250Z,7.70
2019-02-26T03:13:08.957Z,7.60
2019-02-26T03:16:13.546Z,7.80
2019-02-26T03:19:19.026Z,7.80
2019-02-26T03:22:22.486Z,7.70
2019-02-26T03:25:27.023Z,7.20
2019-02-26T03:28:34.842Z,7.30
2019-02-26T03:31:41.049Z,7.40
2019-02-26T03:34:40.832Z,7.60
2019-02-26T03:37:44.134Z,7.70
2019-02-26T03:40:49.326Z,7.70
2019-02-26T03:43:54.441Z,7.40
2019-02-26T03:46:57.739Z,7.40
2019-02-26T03:50:01.268Z,7.60
2019-02-26T03:53:04.309Z,7.70
2019-02-26T03:56:08.912Z,7.60
2019-02-26T03:59:12.875Z,7.60
2019-02-26T04:02:18.120Z,7.60
2019-02-26T04:05:21.519Z,7.50
2019-02-26T04:08:26.920Z,7.50
2019-02-26T04:11:30.018Z,7.60
2019-02-26T04:14:33.235Z,7.70
2019-02-26T04:17:37.002Z,7.60
2019-02-26T04:20:44.357Z,7.60
2019-02-26T04:23:47.340Z,7.50
2019-02-26T04:27:57.009Z,7.50
2019-02-26T04:31:54.673Z,7.10
2019-02-26T04:35:32.164Z,6.60
2019-02-26T04:39:26.340Z,6.30
2019-02-26T04:43:54.185Z,6.10
2019-02-26T04:47:15.202Z,6.00
2019-02-26T04:50:18.149Z,6.10
2019-02-26T04:53:23.258Z,6.10
2019-02-26T04:56:31.246Z,6.30
2019-02-26T04:59:34.866Z,6.40
2019-02-26T05:02:37.888Z,6.70
2019-02-26T05:05:41.123Z,7.00
2019-02-26T05:08:44.967Z,6.90
2019-02-26T05:11:47.909Z,6.60
2019-02-26T05:14:51.406Z,6.60
2019-02-26T05:17:54.608Z,6.40
2019-02-26T05:20:59.328Z,6.80
2019-02-26T05:24:03.446Z,6.80
2019-02-26T05:27:18.673Z,6.40
2019-02-26T05:30:22.395Z,6.60
2019-02-26T05:33:27.691Z,6.80
2019-02-26T05:36:33.194Z,6.80
2019-02-26T05:39:35.431Z,6.90
2019-02-26T05:42:38.668Z,7.00
2019-02-26T05:45:42.275Z,6.90
2019-02-26T05:48:48.392Z,6.70
2019-02-26T05:51:53.537Z,6.70
2019-02-26T05:54:56.724Z,6.30
2019-02-26T05:57:59.654Z,6.00
2019-02-26T06:01:03.172Z,6.00
2019-02-26T06:04:07.665Z,6.00
2019-02-26T06:07:10.990Z,6.00
2019-02-26T06:10:14.235Z,6.00
2019-02-26T06:13:17.747Z,6.00
2019-02-26T06:16:21.845Z,5.70
2019-02-26T06:19:45.019Z,5.70
2019-02-26T06:22:48.144Z,5.90
2019-02-26T06:25:55.231Z,6.30
2019-02-26T06:28:56.216Z,6.40
2019-02-26T06:32:11.885Z,6.40
2019-02-26T06:35:16.416Z,6.30
2019-02-26T06:38:20.525Z,6.40
2019-02-26T06:41:23.458Z,6.60
2019-02-26T06:44:26.701Z,6.80
2019-02-26T06:47:31.089Z,6.90
2019-02-26T06:50:36.810Z,6.80
2019-02-26T06:53:45.058Z,6.70
2019-02-26T06:56:49.048Z,6.20
2019-02-26T06:59:55.723Z,6.00
2019-02-26T07:03:00.123Z,6.10
2019-02-26T07:06:04.915Z,6.10
2019-02-26T07:09:10.962Z,6.30
2019-02-26T07:12:14.622Z,6.60
2019-02-26T07:15:18.990Z,6.70
2019-02-26T07:18:22.361Z,6.90
2019-02-26T07:21:25.581Z,7.00
2019-02-26T07:24:29.362Z,7.00
2019-02-26T07:27:34.211Z,7.00
2019-02-26T07:30:39.435Z,7.10
2019-02-26T07:33:42.062Z,7.10
2019-02-26T07:36:46.194Z,7.10
2019-02-26T07:39:51.585Z,7.00
2019-02-26T07:42:54.629Z,7.10
2019-02-26T07:45:57.573Z,7.10
2019-02-26T07:49:02.635Z,7.00
2019-02-26T07:52:08.178Z,7.10
2019-02-26T07:55:12.027Z,7.10
2019-02-26T07:58:17.731Z,7.20
2019-02-26T08:01:20.643Z,7.10
2019-02-26T08:04:23.914Z,7.20
2019-02-26T08:07:28.467Z,7.30
2019-02-26T08:10:35.168Z,7.10
2019-02-26T08:13:37.159Z,7.20
2019-02-26T08:16:40.356Z,7.20
2019-02-26T08:19:46.361Z,7.30
2019-02-26T08:22:49.517Z,7.40
2019-02-26T08:25:55.474Z,7.50
2019-02-26T08:29:00.058Z,7.40
2019-02-26T08:32:04.221Z,7.50
2019-02-26T08:35:07.784Z,7.50
2019-02-26T08:38:11.022Z,7.60
2019-02-26T08:41:14.308Z,7.60
2019-02-26T08:44:17.292Z,7.70
2019-02-26T08:47:21.148Z,7.70
2019-02-26T08:50:28.565Z,7.60
2019-02-26T08:53:31.607Z,7.80
2019-02-26T08:56:36.393Z,7.90
2019-02-26T08:59:39.769Z,8.10
2019-02-26T09:02:43.726Z,8.30
2019-02-26T09:05:49.350Z,8.40
2019-02-26T09:08:55.159Z,8.60
2019-02-26T09:12:01.183Z,8.80
2019-02-26T09:15:06.230Z,9.00
2019-02-26T09:18:09.287Z,9.20
2019-02-26T09:21:13.499Z,9.40
2019-02-26T09:24:17.654Z,9.50
2019-02-26T09:27:20.884Z,9.60
2019-02-26T09:30:24.480Z,9.80
2019-02-26T09:33:32.525Z,9.90
2019-02-26T09:36:32.580Z,10.10
2019-02-26T09:39:36.596Z,10.20
2019-02-26T09:42:40.904Z,10.40
2019-02-26T09:45:45.911Z,10.50
2019-02-26T09:48:49.317Z,10.60
2019-02-26T09:51:55.070Z,10.80
2019-02-26T09:54:58.108Z,11.00
2019-02-26T09:58:02.595Z,11.20
2019-02-26T10:01:06.893Z,11.40
2019-02-26T10:04:11.239Z,11.40
2019-02-26T10:07:14.472Z,11.50
2019-02-26T10:10:18.768Z,11.50
2019-02-26T10:13:24.734Z,11.60
2019-02-26T10:16:28.708Z,11.80
2019-02-26T10:19:33.750Z,11.90
2019-02-26T10:22:40.349Z,12.00
2019-02-26T10:25:43.085Z,12.10
2019-02-26T10:28:51.059Z,12.20
2019-02-26T10:31:50.941Z,12.30
2019-02-26T10:34:53.916Z,12.40
2019-02-26T10:37:59.444Z,12.50
2019-02-26T10:41:02.530Z,12.60
2019-02-26T10:44:05.479Z,12.70
2019-02-26T10:47:10.546Z,12.90
2019-02-26T10:50:18.482Z,12.90
2019-02-26T10:53:22.698Z,13.10
2019-02-26T10:56:28.172Z,13.30
2019-02-26T10:59:31.132Z,13.40
2019-02-26T11:02:34.381Z,13.60
2019-02-26T11:05:39.835Z,13.80
2019-02-26T11:08:42.793Z,14.00
2019-02-26T11:11:45.744Z,14.10
2019-02-26T11:14:49.027Z,14.20
2019-02-26T11:17:53.583Z,14.40
2019-02-26T11:20:59.189Z,14.60
2019-02-26T11:24:03.629Z,14.80
2019-02-26T11:27:06.874Z,14.90
2019-02-26T11:30:13.127Z,15.10
2019-02-26T11:33:16.608Z,15.20
2019-02-26T11:36:19.577Z,15.20
2019-02-26T11:39:22.543Z,15.40
2019-02-26T11:42:26.168Z,15.40
2019-02-26T11:45:32.382Z,15.40
2019-02-26T11:48:35.506Z,15.60
2019-02-26T11:51:41.813Z,15.70
2019-02-26T11:54:44.663Z,15.80
2019-02-26T11:57:49.765Z,15.90
2019-02-26T12:00:57.750Z,15.90
2019-02-26T12:04:04.176Z,16.00
2019-02-26T12:07:07.519Z,16.30
2019-02-26T12:10:14.575Z,16.30
2019-02-26T12:13:19.730Z,16.30
2019-02-26T12:16:23.203Z,16.30
2019-02-26T12:19:28.320Z,16.30
2019-02-26T12:22:31.495Z,16.30
2019-02-26T12:25:35.083Z,16.40
2019-02-26T12:28:40.337Z,16.50
2019-02-26T12:31:43.609Z,16.50
2019-02-26T12:34:48.446Z,16.50
2019-02-26T12:37:53.965Z,16.40
2019-02-26T12:40:58.141Z,16.60
2019-02-26T12:44:03.655Z,16.70
2019-02-26T12:47:05.988Z,17.00
2019-02-26T12:50:11.719Z,16.90
2019-02-26T12:53:17.843Z,17.00
2019-02-26T12:56:20.817Z,16.80
2019-02-26T12:59:25.388Z,16.80
2019-02-26T13:02:28.582Z,17.10
2019-02-26T13:05:31.570Z,17.30
2019-02-26T13:08:36.139Z,17.30
2019-02-26T13:12:00.187Z,17.20
2019-02-26T13:14:47.531Z,17.20
2019-02-26T13:17:54.222Z,16.80
2019-02-26T13:20:59.372Z,17.10
2019-02-26T13:24:11.366Z,17.40
2019-02-26T13:27:05.969Z,17.40
2019-02-26T13:30:12.043Z,17.50
2019-02-26T13:33:17.918Z,17.40
2019-02-26T13:36:20.961Z,17.30
2019-02-26T13:39:29.794Z,17.40
2019-02-26T13:42:29.200Z,17.50
2019-02-26T13:45:32.465Z,17.60
2019-02-26T13:48:35.990Z,17.50
2019-02-26T13:51:39.571Z,17.50
2019-02-26T13:54:42.705Z,17.70
2019-02-26T13:57:46.042Z,17.70
2019-02-26T14:00:49.272Z,17.80
2019-02-26T14:03:52.860Z,17.90
2019-02-26T14:06:56.193Z,18.20
2019-02-26T14:09:59.815Z,18.00
2019-02-26T14:13:04.661Z,18.20
2019-02-26T14:16:07.624Z,18.30
2019-02-26T14:19:10.565Z,18.30
2019-02-26T14:22:14.694Z,18.10
2019-02-26T14:25:17.870Z,17.90
2019-02-26T14:28:20.809Z,17.60
2019-02-26T14:31:24.071Z,17.40
2019-02-26T14:34:27.000Z,17.50
2019-02-26T14:37:30.528Z,17.50
2019-02-26T14:40:33.745Z,17.60
2019-02-26T14:43:37.047Z,17.50
2019-02-26T14:46:40.005Z,17.40
2019-02-26T14:49:42.932Z,17.40
2019-02-26T14:52:46.438Z,17.60
2019-02-26T14:55:50.044Z,17.60
2019-02-26T14:58:55.147Z,17.60
2019-02-26T15:01:58.072Z,17.40
2019-02-26T15:05:01.064Z,17.10
2019-02-26T15:08:04.683Z,16.70
2019-02-26T15:11:07.636Z,16.30
2019-02-26T15:14:10.590Z,16.00
2019-02-26T15:17:13.543Z,15.80
2019-02-26T15:20:16.687Z,15.60
2019-02-26T15:23:20.042Z,15.50
2019-02-26T15:26:24.110Z,15.50
2019-02-26T15:29:28.061Z,15.40
2019-02-26T15:32:31.023Z,15.40
2019-02-26T15:35:34.523Z,15.30
2019-02-26T15:38:37.768Z,15.30
2019-02-26T15:41:41.325Z,15.10
2019-02-26T15:44:45.436Z,15.10
2019-02-26T15:47:48.756Z,15.00
2019-02-26T15:50:51.698Z,14.80
2019-02-26T15:53:55.568Z,14.70
2019-02-26T15:57:00.458Z,14.60
2019-02-26T16:00:06.703Z,14.50
2019-02-26T16:03:10.268Z,14.40
2019-02-26T16:06:14.307Z,14.30
2019-02-26T16:09:17.264Z,14.20
2019-02-26T16:12:20.619Z,14.10
2019-02-26T16:15:24.783Z,14.10
2019-02-26T16:18:29.581Z,13.90
2019-02-26T16:21:33.321Z,13.70
2019-02-26T16:24:36.721Z,13.60
2019-02-26T16:27:40.353Z,13.40
2019-02-26T16:30:43.555Z,13.30
2019-02-26T16:33:47.285Z,13.20
2019-02-26T16:36:50.589Z,13.10
2019-02-26T16:39:55.995Z,13.00
2019-02-26T16:42:58.960Z,12.90
2019-02-26T16:46:01.918Z,12.80
2019-02-26T16:49:05.529Z,12.80
2019-02-26T16:52:08.906Z,12.70
2019-02-26T16:55:13.753Z,12.60
2019-02-26T16:58:17.075Z,12.50
2019-02-26T17:01:21.787Z,12.50
2019-02-26T17:04:26.228Z,12.50
2019-02-26T17:07:29.664Z,12.30
2019-02-26T17:10:33.098Z,12.20
2019-02-26T17:13:36.301Z,12.20
2019-02-26T17:16:40.619Z,12.20
2019-02-26T17:19:48.343Z,12.10
2019-02-26T17:22:49.134Z,12.00
2019-02-26T17:25:52.095Z,11.90
2019-02-26T17:28:55.553Z,11.90
2019-02-26T17:31:58.550Z,11.80
2019-02-26T17:35:01.806Z,11.70
2019-02-26T17:38:05.351Z,11.60
2019-02-26T17:41:09.925Z,11.60
2019-02-26T17:44:13.731Z,11.70
2019-02-26T17:47:16.759Z,11.60
2019-02-26T17:50:29.523Z,11.50
2019-02-26T17:53:32.743Z,11.40
2019-02-26T17:56:36.263Z,11.30
2019-02-26T17:59:39.505Z,11.30
2019-02-26T18:02:42.720Z,11.40
2019-02-26T18:05:51.375Z,11.30
2019-02-26T18:08:50.903Z,11.30
2019-02-26T18:11:53.859Z,11.30
2019-02-26T18:14:56.816Z,11.10
2019-02-26T18:18:00.045Z,11.00
2019-02-26T18:21:05.791Z,11.00
2019-02-26T18:24:07.974Z,11.00
2019-02-26T18:27:10.939Z,10.90
2019-02-26T18:30:19.552Z,11.00
2019-02-26T18:33:22.960Z,10.90
2019-02-26T18:36:26.196Z,10.90
2019-02-26T18:39:29.712Z,10.90
2019-02-26T18:42:32.743Z,10.80
2019-02-26T18:45:35.913Z,10.80
2019-02-26T18:48:39.340Z,10.80
2019-02-26T18:51:42.530Z,10.80
2019-02-26T18:54:45.503Z,10.80
2019-02-26T18:57:48.452Z,10.70
2019-02-26T19:00:52.187Z,10.60
2019-02-26T19:03:55.256Z,10.60
2019-02-26T19:06:59.642Z,10.80
2019-02-26T19:10:06.063Z,10.70
2019-02-26T19:13:09.193Z,10.60
2019-02-26T19:16:12.360Z,10.60
2019-02-26T19:19:16.297Z,10.50
2019-02-26T19:22:19.552Z,10.50
2019-02-26T19:25:22.520Z,10.50
2019-02-26T19:28:26.478Z,10.50
2019-02-26T19:31:29.867Z,10.40
2019-02-26T19:34:32.935Z,10.40
2019-02-26T19:37:36.028Z,10.50
2019-02-26T19:40:40.506Z,10.40
2019-02-26T19:43:44.461Z,10.40
2019-02-26T19:46:49.660Z,10.20
2019-02-26T19:49:52.853Z,10.30
2019-02-26T19:52:57.291Z,10.30
2019-02-26T19:56:00.785Z,10.10
2019-02-26T19:59:03.721Z,10.10
2019-02-26T20:02:06.756Z,10.10
2019-02-26T20:05:12.210Z,10.20
2019-02-26T20:08:15.873Z,10.00
2019-02-26T20:11:22.357Z,10.00
2019-02-26T20:14:24.205Z,10.00
2019-02-26T20:17:27.426Z,10.10
2019-02-26T20:20:40.195Z,10.10
2019-02-26T20:23:36.302Z,10.10
2019-02-26T20:26:39.856Z,10.10
2019-02-26T20:29:43.079Z,10.00
2019-02-26T20:32:46.075Z,10.00
2019-02-26T20:35:49.686Z,10.00
2019-02-26T20:38:53.275Z,10.00
2019-02-26T20:41:56.491Z,9.90
2019-02-26T20:44:59.846Z,9.90
2019-02-26T20:48:04.336Z,10.00
2019-02-26T20:51:07.923Z,10.10
2019-02-26T20:54:11.688Z,10.00
2019-02-26T20:57:15.110Z,9.80
2019-02-26T21:00:18.522Z,9.50
2019-02-26T21:03:21.877Z,9.40
2019-02-26T21:06:25.052Z,9.50
2019-02-26T21:09:28.455Z,9.50
2019-02-26T21:12:31.687Z,9.50
2019-02-26T21:15:34.749Z,9.40
2019-02-26T21:18:39.349Z,9.30
2019-02-26T21:21:42.979Z,9.20
2019-02-26T21:24:47.525Z,9.20
2019-02-26T21:27:50.734Z,9.40
2019-02-26T21:30:54.099Z,9.20
2019-02-26T21:33:57.344Z,9.20
2019-02-26T21:37:00.713Z,9.20
2019-02-26T21:40:04.187Z,9.10
2019-02-26T21:43:08.490Z,9.10
2019-02-26T21:46:11.432Z,8.80
2019-02-26T21:49:14.642Z,8.70
2019-02-26T21:52:17.831Z,8.70
2019-02-26T21:55:21.076Z,9.00
2019-02-26T21:58:26.463Z,8.90
2019-02-26T22:01:29.143Z,9.10
2019-02-26T22:04:32.437Z,9.40
2019-02-26T22:07:35.660Z,9.10
2019-02-26T22:10:40.219Z,8.80
2019-02-26T22:13:43.870Z,8.90
2019-02-26T22:16:48.978Z,9.10
2019-02-26T22:19:52.776Z,9.00
2019-02-26T22:22:57.872Z,9.20
2019-02-26T22:26:01.338Z,9.10
2019-02-26T22:29:04.273Z,8.80
2019-02-26T22:32:07.590Z,8.80
2019-02-26T22:35:11.723Z,8.40
2019-02-26T22:38:15.997Z,8.30
2019-02-26T22:41:19.298Z,8.80
2019-02-26T22:44:22.531Z,8.40
2019-02-26T22:47:25.745Z,8.10
2019-02-26T22:50:28.950Z,8.00
2019-02-26T22:53:31.893Z,8.00
2019-02-26T22:56:34.815Z,8.60
2019-02-26T22:59:38.575Z,8.80
2019-02-26T23:02:43.456Z,8.40
2019-02-26T23:05:46.839Z,8.10
2019-02-26T23:08:50.754Z,8.00
2019-02-26T23:11:54.103Z,7.90
2019-02-26T23:14:57.759Z,8.10
2019-02-26T23:18:01.004Z,8.40
2019-02-26T23:21:04.750Z,8.70
2019-02-26T23:24:08.095Z,8.90
2019-02-26T23:27:14.897Z,9.00
2019-02-26T23:30:16.734Z,8.70
2019-02-26T23:33:20.120Z,8.70
2019-02-26T23:36:23.067Z,8.40
2019-02-26T23:39:26.374Z,8.00
2019-02-26T23:42:31.379Z,8.20
2019-02-26T23:45:34.803Z,8.20
2019-02-26T23:48:40.572Z,8.30
2019-02-26T23:51:42.858Z,8.20
2019-02-26T23:54:45.823Z,8.40
2019-02-26T23:57:49.312Z,8.20
